Inicio METAR Ruta Wind Satelite

Informe Meteorológico

Fecha: 2020/11/30 15:42:37 Local
2020.11.30 20:42 UTC


Estado: VENCIDO
Operación:
Quibdo / El Carano, Colombia (SKUI) 05-43N 076-37W
Nov 11, 2020 - 06:00 AM EST / 2020.11.11 1100 UTC
Wind: from the SE (140 degrees) at 6 MPH (5 KT):0
Visibility: 4 mile(s):0
Sky conditions: overcast
Weather: light drizzle
Temperature: 73 F (23 C)
Dew Point: 73 F (23 C)
Relative Humidity: 100%
Pressure (altimeter): 29.91 in. Hg (1012 hPa)
ob: SKUI 111100Z 14005KT 7000 -DZ BKN015 OVC080 23/23 A2991
cycle: 11